Hickory Creek, Texas
Current Conditions -  °F | °C
As of 12:53 PM on Monday 20 Oct 2014 (Local Time) from KDTO Reporting Station
Clear Clear  
Wind Chill: 77°   Ceiling: Unl
Heat Index: 79°   Visibility: 10mi
Dew Point: 62°   Wind: 8mph
Humidity: 60%   Direction: 190°S
Pressure: 30.07"   Gusts: NA
Location:  33.1173°N, 97.0163°W
Report Text: KDTO 201753Z 19007KT 10SM CLR 25/17 A3007 RMK AO2 SLP176 T02500167 10256 20117 58011
Loading
Personal Weather Stations






























Interactive Weather Map
Tropical Storm Tracking
New forecast layout! Learn more

10-Day Weather Forecast

Advertisements
Track Severe Weather on mobile